LA HONDA (LAH)

Elevation: 425' · SAN GREGORIO CR basin · Operator: CAL FIRE

Query executed Sunday at 10:48:43   clock

Provisional data, subject to change.
Select a sensor type for a plot of data.

Earlier

Date   /   Time   RAIN     TEMP     REL HUM     FUEL MS     FUEL TP     WIND SP     WIND DR     PEAK WS     PEAK WD     SOLAR R     BAT VOL    
(PDT)INCHES   DEG F   %   %   DEG F   MPH   DEG   MPH   DEG   W/M^2   VOLTS  
08/29/2015 10:00 0.22 67 92 22 69 4 229 6 223 144.00 13.7
08/29/2015 11:00 0.23 67 93 24 69 1 250 7 223 125.00 13.7
08/29/2015 12:00 0.25 68 92 24 71 4 235 6 242 203.00 14.2
08/29/2015 13:00 0.26 67 91 24 69 2 252 6 339 164.00 13.9
08/29/2015 14:00 0.26 69 90 24 72 2 258 6 314 255.00 13.6
08/29/2015 15:00 0.26 71 81 24 75 4 241 9 236 401.00 13.6
08/29/2015 16:00 0.26 75 63 22 83 6 242 12 223 631.00 13.5
08/29/2015 17:00 0.26 74 58 19 81 6 237 11 229 529.00 13.5
08/29/2015 18:00 0.26 70 61 15 73 6 235 11 235 366.00 13.8
08/29/2015 19:00 0.26 66 73 15 63 2 256 11 220 82.00 13.4
08/29/2015 20:00 0.26 61 80 16 57 1 349 4 224 7.00 13.2
08/29/2015 21:00 0.26 58 87 18 55 3 67 4 72 0.00 13.1
08/29/2015 22:00 0.26 55 90 20 53 4 77 5 70 0.00 12.9
08/29/2015 23:00 0.26 54 91 21 52 4 71 5 74 0.00 12.9
08/30/2015 00:00 0.26 52 92 22 50 4 78 6 72 0.00 12.8
08/30/2015 01:00 0.26 54 93 23 54 3 89 6 81 0.00 12.8
08/30/2015 02:00 0.26 57 93 23 56 2 94 4 89 0.00 12.8
08/30/2015 03:00 0.26 59 93 24 58 1 8 4 93 0.00 12.8
08/30/2015 04:00 0.26 59 91 24 59 2 216 6 300 0.00 12.7
08/30/2015 05:00 0.26 58 91 24 56 2 73 3 45 0.00 12.7
08/30/2015 06:00 0.26 57 92 24 57 2 83 4 70 0.00 12.7
08/30/2015 07:00 0.26 57 91 24 57 4 67 6 60 9.00 12.7
08/30/2015 08:00 0.26 62 82 22 62 2 261 4 78 128.00 13.3
08/30/2015 09:00 0.26 66 78 23 67 4 242 6 220 232.00 13.8
08/30/2015 10:00 0.26 69 68 18 76 5 244 9 234 488.00 13.7

Later | Latest

Warning! This data is preliminary and subject to revision.

Show LAH Map | 24 Hours LAH Data | Plot all LAH Sensors | Daily LAH Data | LAH Info